sensor_id;sensor_type;location;lat;lon;timestamp;P1;durP1;ratioP1;P2;durP2;ratioP2
77748;SDS011;66938;52.084;5.228;2024-01-07T00:02:30;16.0;;;14.5;;
77748;SDS011;66938;52.084;5.228;2024-01-07T00:04:07;16.11;;;14.7;;
77748;SDS011;66938;52.084;5.228;2024-01-07T00:05:43;16.5;;;15.0;;
77748;SDS011;66938;52.084;5.228;2024-01-07T00:07:20;17.0;;;15.5;;
77748;SDS011;66938;52.084;5.228;2024-01-07T00:10:32;16.11;;;14.6;;
77748;SDS011;66938;52.084;5.228;2024-01-07T00:12:08;17.0;;;15.5;;
77748;SDS011;66938;52.084;5.228;2024-01-07T00:13:47;16.8;;;15.3;;
77748;SDS011;66938;52.084;5.228;2024-01-07T00:17:00;18.0;;;16.3;;
77748;SDS011;66938;52.084;5.228;2024-01-07T00:18:36;17.91;;;16.2;;
77748;SDS011;66938;52.084;5.228;2024-01-07T00:20:12;19.11;;;17.41;;
77748;SDS011;66938;52.084;5.228;2024-01-07T00:23:25;17.2;;;15.7;;
77748;SDS011;66938;52.084;5.228;2024-01-07T00:25:01;16.61;;;15.1;;
77748;SDS011;66938;52.084;5.228;2024-01-07T00:26:38;18.0;;;16.4;;
77748;SDS011;66938;52.084;5.228;2024-01-07T00:28:14;19.3;;;17.5;;
77748;SDS011;66938;52.084;5.228;2024-01-07T00:31:28;19.3;;;17.5;;
77748;SDS011;66938;52.084;5.228;2024-01-07T00:33:06;21.0;;;19.0;;
77748;SDS011;66938;52.084;5.228;2024-01-07T00:34:42;19.3;;;17.41;;
77748;SDS011;66938;52.084;5.228;2024-01-07T00:37:54;19.5;;;17.8;;
77748;SDS011;66938;52.084;5.228;2024-01-07T00:39:30;20.3;;;18.41;;
77748;SDS011;66938;52.084;5.228;2024-01-07T00:41:06;18.5;;;16.8;;
77748;SDS011;66938;52.084;5.228;2024-01-07T00:44:18;18.41;;;16.7;;
77748;SDS011;66938;52.084;5.228;2024-01-07T00:45:55;21.3;;;19.3;;
77748;SDS011;66938;52.084;5.228;2024-01-07T00:47:31;22.4;;;20.2;;
77748;SDS011;66938;52.084;5.228;2024-01-07T00:50:43;20.2;;;18.3;;
77748;SDS011;66938;52.084;5.228;2024-01-07T00:52:19;19.11;;;17.41;;
77748;SDS011;66938;52.084;5.228;2024-01-07T00:53:55;20.6;;;18.7;;
77748;SDS011;66938;52.084;5.228;2024-01-07T00:55:31;20.5;;;18.61;;
77748;SDS011;66938;52.084;5.228;2024-01-07T00:58:47;22.5;;;20.41;;
77748;SDS011;66938;52.084;5.228;2024-01-07T01:00:23;20.2;;;18.3;;
77748;SDS011;66938;52.084;5.228;2024-01-07T01:01:59;19.8;;;18.0;;
77748;SDS011;66938;52.084;5.228;2024-01-07T01:05:11;20.2;;;18.3;;
77748;SDS011;66938;52.084;5.228;2024-01-07T01:06:48;20.6;;;18.7;;
77748;SDS011;66938;52.084;5.228;2024-01-07T01:08:24;20.7;;;18.8;;
77748;SDS011;66938;52.084;5.228;2024-01-07T01:11:37;20.41;;;18.41;;
77748;SDS011;66938;52.084;5.228;2024-01-07T01:13:13;20.8;;;18.91;;
77748;SDS011;66938;52.084;5.228;2024-01-07T01:14:49;19.11;;;17.41;;
77748;SDS011;66938;52.084;5.228;2024-01-07T01:16:26;20.3;;;18.41;;
77748;SDS011;66938;52.084;5.228;2024-01-07T01:19:40;19.7;;;17.91;;
77748;SDS011;66938;52.084;5.228;2024-01-07T01:21:17;20.0;;;18.2;;
77748;SDS011;66938;52.084;5.228;2024-01-07T01:22:53;21.4;;;19.41;;
77748;SDS011;66938;52.084;5.228;2024-01-07T01:26:05;19.41;;;17.61;;
77748;SDS011;66938;52.084;5.228;2024-01-07T01:27:41;19.5;;;17.7;;
77748;SDS011;66938;52.084;5.228;2024-01-07T01:29:17;19.61;;;17.7;;
77748;SDS011;66938;52.084;5.228;2024-01-07T01:32:29;19.0;;;17.3;;
77748;SDS011;66938;52.084;5.228;2024-01-07T01:34:05;20.0;;;18.2;;
77748;SDS011;66938;52.084;5.228;2024-01-07T01:35:43;19.91;;;18.11;;
77748;SDS011;66938;52.084;5.228;2024-01-07T01:37:19;19.5;;;17.8;;
77748;SDS011;66938;52.084;5.228;2024-01-07T01:40:32;18.8;;;17.2;;
77748;SDS011;66938;52.084;5.228;2024-01-07T01:42:08;18.5;;;16.7;;
77748;SDS011;66938;52.084;5.228;2024-01-07T01:43:44;18.0;;;16.3;;
77748;SDS011;66938;52.084;5.228;2024-01-07T01:46:56;18.61;;;16.9;;
77748;SDS011;66938;52.084;5.228;2024-01-07T01:48:34;18.3;;;16.7;;
77748;SDS011;66938;52.084;5.228;2024-01-07T01:50:12;18.91;;;17.2;;
77748;SDS011;66938;52.084;5.228;2024-01-07T01:53:26;19.11;;;17.41;;
77748;SDS011;66938;52.084;5.228;2024-01-07T01:55:03;17.91;;;16.3;;
77748;SDS011;66938;52.084;5.228;2024-01-07T01:56:40;17.8;;;16.2;;
77748;SDS011;66938;52.084;5.228;2024-01-07T01:58:16;16.9;;;15.3;;
77748;SDS011;66938;52.084;5.228;2024-01-07T02:01:31;17.11;;;15.7;;
77748;SDS011;66938;52.084;5.228;2024-01-07T02:03:08;17.41;;;15.8;;
77748;SDS011;66938;52.084;5.228;2024-01-07T02:04:44;17.61;;;16.0;;
77748;SDS011;66938;52.084;5.228;2024-01-07T02:07:58;18.7;;;17.0;;
77748;SDS011;66938;52.084;5.228;2024-01-07T02:09:35;17.61;;;16.0;;
77748;SDS011;66938;52.084;5.228;2024-01-07T02:11:14;18.7;;;16.9;;
77748;SDS011;66938;52.084;5.228;2024-01-07T02:12:52;18.7;;;16.9;;
77748;SDS011;66938;52.084;5.228;2024-01-07T02:16:05;19.2;;;17.41;;
77748;SDS011;66938;52.084;5.228;2024-01-07T02:17:42;20.0;;;18.11;;
77748;SDS011;66938;52.084;5.228;2024-01-07T02:19:19;17.91;;;16.2;;
77748;SDS011;66938;52.084;5.228;2024-01-07T02:22:34;20.6;;;18.61;;
77748;SDS011;66938;52.084;5.228;2024-01-07T02:24:14;20.41;;;18.41;;
77748;SDS011;66938;52.084;5.228;2024-01-07T02:25:51;22.6;;;20.41;;
77748;SDS011;66938;52.084;5.228;2024-01-07T02:27:27;22.6;;;20.3;;
77748;SDS011;66938;52.084;5.228;2024-01-07T02:30:40;21.9;;;19.8;;
77748;SDS011;66938;52.084;5.228;2024-01-07T02:32:16;20.5;;;18.5;;
77748;SDS011;66938;52.084;5.228;2024-01-07T02:33:52;22.4;;;20.2;;
77748;SDS011;66938;52.084;5.228;2024-01-07T02:37:04;23.2;;;21.0;;
77748;SDS011;66938;52.084;5.228;2024-01-07T02:38:40;24.5;;;21.9;;
77748;SDS011;66938;52.084;5.228;2024-01-07T02:40:16;23.8;;;21.4;;
77748;SDS011;66938;52.084;5.228;2024-01-07T02:43:29;23.7;;;21.3;;
77748;SDS011;66938;52.084;5.228;2024-01-07T02:45:05;24.2;;;21.8;;
77748;SDS011;66938;52.084;5.228;2024-01-07T02:46:42;24.2;;;21.8;;
77748;SDS011;66938;52.084;5.228;2024-01-07T02:49:55;24.2;;;21.8;;
77748;SDS011;66938;52.084;5.228;2024-01-07T02:51:32;24.0;;;21.6;;
77748;SDS011;66938;52.084;5.228;2024-01-07T02:53:08;24.7;;;22.2;;
77748;SDS011;66938;52.084;5.228;2024-01-07T02:54:45;23.7;;;21.2;;
77748;SDS011;66938;52.084;5.228;2024-01-07T02:57:57;24.3;;;22.0;;
77748;SDS011;66938;52.084;5.228;2024-01-07T02:59:34;24.5;;;22.1;;
77748;SDS011;66938;52.084;5.228;2024-01-07T03:01:11;25.6;;;23.0;;
77748;SDS011;66938;52.084;5.228;2024-01-07T03:04:24;25.3;;;22.8;;
77748;SDS011;66938;52.084;5.228;2024-01-07T03:06:00;24.4;;;22.0;;
77748;SDS011;66938;52.084;5.228;2024-01-07T03:07:37;26.9;;;24.2;;
77748;SDS011;66938;52.084;5.228;2024-01-07T03:10:50;26.0;;;23.4;;
77748;SDS011;66938;52.084;5.228;2024-01-07T03:12:27;26.0;;;23.4;;
77748;SDS011;66938;52.084;5.228;2024-01-07T03:14:03;25.4;;;23.0;;
77748;SDS011;66938;52.084;5.228;2024-01-07T03:15:39;23.4;;;21.2;;
77748;SDS011;66938;52.084;5.228;2024-01-07T03:18:51;24.4;;;22.1;;
77748;SDS011;66938;52.084;5.228;2024-01-07T03:20:28;24.0;;;21.6;;
77748;SDS011;66938;52.084;5.228;2024-01-07T03:22:04;24.0;;;21.6;;
77748;SDS011;66938;52.084;5.228;2024-01-07T03:25:16;23.2;;;20.9;;
77748;SDS011;66938;52.084;5.228;2024-01-07T03:26:53;23.0;;;20.8;;
77748;SDS011;66938;52.084;5.228;2024-01-07T03:28:29;23.7;;;21.4;;
77748;SDS011;66938;52.084;5.228;2024-01-07T03:31:42;23.5;;;21.2;;
77748;SDS011;66938;52.084;5.228;2024-01-07T03:33:18;22.9;;;20.7;;
77748;SDS011;66938;52.084;5.228;2024-01-07T03:34:54;22.9;;;20.7;;
77748;SDS011;66938;52.084;5.228;2024-01-07T03:36:30;22.8;;;20.5;;
77748;SDS011;66938;52.084;5.228;2024-01-07T03:39:43;22.2;;;20.0;;
77748;SDS011;66938;52.084;5.228;2024-01-07T03:41:20;22.9;;;20.6;;
77748;SDS011;66938;52.084;5.228;2024-01-07T03:42:57;22.2;;;20.0;;
77748;SDS011;66938;52.084;5.228;2024-01-07T03:46:09;23.0;;;20.7;;
77748;SDS011;66938;52.084;5.228;2024-01-07T03:47:45;22.2;;;20.0;;
77748;SDS011;66938;52.084;5.228;2024-01-07T03:49:21;24.0;;;21.6;;
77748;SDS011;66938;52.084;5.228;2024-01-07T03:52:33;22.6;;;20.41;;
77748;SDS011;66938;52.084;5.228;2024-01-07T03:54:10;22.4;;;20.2;;
77748;SDS011;66938;52.084;5.228;2024-01-07T03:55:46;21.5;;;19.41;;
77748;SDS011;66938;52.084;5.228;2024-01-07T03:58:58;22.4;;;20.2;;
77748;SDS011;66938;52.084;5.228;2024-01-07T04:00:34;24.6;;;22.0;;
77748;SDS011;66938;52.084;5.228;2024-01-07T04:02:10;24.7;;;22.2;;
77748;SDS011;66938;52.084;5.228;2024-01-07T04:03:46;24.6;;;22.2;;
77748;SDS011;66938;52.084;5.228;2024-01-07T04:07:02;24.1;;;21.7;;
77748;SDS011;66938;52.084;5.228;2024-01-07T04:08:39;24.7;;;22.2;;
77748;SDS011;66938;52.084;5.228;2024-01-07T04:10:15;25.4;;;22.8;;
77748;SDS011;66938;52.084;5.228;2024-01-07T04:13:28;27.0;;;24.2;;
77748;SDS011;66938;52.084;5.228;2024-01-07T04:15:05;23.8;;;21.4;;
77748;SDS011;66938;52.084;5.228;2024-01-07T04:16:41;25.1;;;22.6;;
77748;SDS011;66938;52.084;5.228;2024-01-07T04:19:54;25.0;;;22.5;;
77748;SDS011;66938;52.084;5.228;2024-01-07T04:21:31;24.4;;;22.0;;
77748;SDS011;66938;52.084;5.228;2024-01-07T04:23:07;25.2;;;22.6;;
77748;SDS011;66938;52.084;5.228;2024-01-07T04:24:43;25.5;;;22.9;;
77748;SDS011;66938;52.084;5.228;2024-01-07T04:27:56;24.8;;;22.2;;
77748;SDS011;66938;52.084;5.228;2024-01-07T04:29:32;25.3;;;22.7;;
77748;SDS011;66938;52.084;5.228;2024-01-07T04:31:08;23.3;;;20.9;;
77748;SDS011;66938;52.084;5.228;2024-01-07T04:34:22;25.5;;;22.9;;
77748;SDS011;66938;52.084;5.228;2024-01-07T04:35:58;23.2;;;20.9;;
77748;SDS011;66938;52.084;5.228;2024-01-07T04:37:34;24.9;;;22.3;;
77748;SDS011;66938;52.084;5.228;2024-01-07T04:40:48;26.3;;;23.6;;
77748;SDS011;66938;52.084;5.228;2024-01-07T04:42:24;26.3;;;23.5;;
77748;SDS011;66938;52.084;5.228;2024-01-07T04:44:00;25.6;;;22.9;;
77748;SDS011;66938;52.084;5.228;2024-01-07T04:45:37;28.0;;;25.1;;
77748;SDS011;66938;52.084;5.228;2024-01-07T04:49:10;29.0;;;26.0;;
77748;SDS011;66938;52.084;5.228;2024-01-07T04:50:49;30.1;;;26.9;;
77748;SDS011;66938;52.084;5.228;2024-01-07T04:52:25;30.2;;;26.0;;
77748;SDS011;66938;52.084;5.228;2024-01-07T04:54:02;28.6;;;25.6;;
77748;SDS011;66938;52.084;5.228;2024-01-07T04:57:15;27.8;;;24.9;;
77748;SDS011;66938;52.084;5.228;2024-01-07T04:58:51;28.5;;;25.4;;
77748;SDS011;66938;52.084;5.228;2024-01-07T05:00:28;28.7;;;25.6;;
77748;SDS011;66938;52.084;5.228;2024-01-07T05:03:40;28.4;;;25.4;;
77748;SDS011;66938;52.084;5.228;2024-01-07T05:05:17;26.9;;;24.1;;
77748;SDS011;66938;52.084;5.228;2024-01-07T05:06:53;25.6;;;23.0;;
77748;SDS011;66938;52.084;5.228;2024-01-07T05:10:06;26.4;;;23.7;;
77748;SDS011;66938;52.084;5.228;2024-01-07T05:11:43;26.1;;;23.4;;
77748;SDS011;66938;52.084;5.228;2024-01-07T05:13:19;24.9;;;22.4;;
77748;SDS011;66938;52.084;5.228;2024-01-07T05:14:56;24.9;;;22.4;;
77748;SDS011;66938;52.084;5.228;2024-01-07T05:18:08;23.9;;;21.4;;
77748;SDS011;66938;52.084;5.228;2024-01-07T05:19:44;23.2;;;20.9;;
77748;SDS011;66938;52.084;5.228;2024-01-07T05:21:20;23.0;;;20.7;;
77748;SDS011;66938;52.084;5.228;2024-01-07T05:24:36;22.2;;;19.91;;
77748;SDS011;66938;52.084;5.228;2024-01-07T05:26:12;21.1;;;19.11;;
77748;SDS011;66938;52.084;5.228;2024-01-07T05:27:49;20.7;;;18.61;;
77748;SDS011;66938;52.084;5.228;2024-01-07T05:31:01;22.1;;;20.0;;
77748;SDS011;66938;52.084;5.228;2024-01-07T05:32:37;21.3;;;19.2;;
77748;SDS011;66938;52.084;5.228;2024-01-07T05:34:13;20.11;;;18.2;;
77748;SDS011;66938;52.084;5.228;2024-01-07T05:35:49;21.2;;;19.11;;
77748;SDS011;66938;52.084;5.228;2024-01-07T05:39:02;21.1;;;19.0;;
77748;SDS011;66938;52.084;5.228;2024-01-07T05:40:39;19.61;;;17.7;;
77748;SDS011;66938;52.084;5.228;2024-01-07T05:42:15;20.3;;;18.3;;
77748;SDS011;66938;52.084;5.228;2024-01-07T05:45:27;19.8;;;17.8;;
77748;SDS011;66938;52.084;5.228;2024-01-07T05:47:03;18.3;;;16.61;;
77748;SDS011;66938;52.084;5.228;2024-01-07T05:48:40;20.0;;;18.0;;
77748;SDS011;66938;52.084;5.228;2024-01-07T05:51:53;20.9;;;18.8;;
77748;SDS011;66938;52.084;5.228;2024-01-07T05:53:29;20.8;;;18.8;;
77748;SDS011;66938;52.084;5.228;2024-01-07T05:55:06;19.91;;;17.91;;
77748;SDS011;66938;52.084;5.228;2024-01-07T05:56:43;19.91;;;17.91;;
77748;SDS011;66938;52.084;5.228;2024-01-07T05:59:58;20.6;;;18.5;;
77748;SDS011;66938;52.084;5.228;2024-01-07T06:01:35;20.8;;;18.7;;
77748;SDS011;66938;52.084;5.228;2024-01-07T06:03:11;20.11;;;18.11;;
77748;SDS011;66938;52.084;5.228;2024-01-07T06:06:24;20.11;;;18.11;;
77748;SDS011;66938;52.084;5.228;2024-01-07T06:08:00;19.8;;;17.91;;
77748;SDS011;66938;52.084;5.228;2024-01-07T06:09:37;18.61;;;16.8;;
77748;SDS011;66938;52.084;5.228;2024-01-07T06:12:49;18.2;;;16.5;;
77748;SDS011;66938;52.084;5.228;2024-01-07T06:14:25;18.3;;;16.5;;
77748;SDS011;66938;52.084;5.228;2024-01-07T06:16:01;19.41;;;17.61;;
77748;SDS011;66938;52.084;5.228;2024-01-07T06:17:37;19.11;;;17.3;;
77748;SDS011;66938;52.084;5.228;2024-01-07T06:20:52;19.0;;;17.2;;
77748;SDS011;66938;52.084;5.228;2024-01-07T06:22:29;19.3;;;17.5;;
77748;SDS011;66938;52.084;5.228;2024-01-07T06:24:05;19.3;;;17.5;;
77748;SDS011;66938;52.084;5.228;2024-01-07T06:27:20;19.7;;;17.91;;
77748;SDS011;66938;52.084;5.228;2024-01-07T06:28:56;20.5;;;18.41;;
77748;SDS011;66938;52.084;5.228;2024-01-07T06:30:32;20.5;;;18.61;;
77748;SDS011;66938;52.084;5.228;2024-01-07T06:33:49;18.8;;;16.9;;
77748;SDS011;66938;52.084;5.228;2024-01-07T06:35:25;19.7;;;17.91;;
77748;SDS011;66938;52.084;5.228;2024-01-07T06:37:02;19.41;;;17.5;;
77748;SDS011;66938;52.084;5.228;2024-01-07T06:38:39;20.7;;;18.7;;
77748;SDS011;66938;52.084;5.228;2024-01-07T06:41:51;19.11;;;17.3;;
77748;SDS011;66938;52.084;5.228;2024-01-07T06:43:27;17.8;;;16.11;;
77748;SDS011;66938;52.084;5.228;2024-01-07T06:45:05;17.91;;;16.2;;
77748;SDS011;66938;52.084;5.228;2024-01-07T06:48:17;17.0;;;15.4;;
77748;SDS011;66938;52.084;5.228;2024-01-07T06:49:54;17.2;;;15.6;;
77748;SDS011;66938;52.084;5.228;2024-01-07T06:51:31;16.8;;;15.1;;
77748;SDS011;66938;52.084;5.228;2024-01-07T06:53:07;17.8;;;16.0;;
77748;SDS011;66938;52.084;5.228;2024-01-07T06:56:22;16.8;;;15.2;;
77748;SDS011;66938;52.084;5.228;2024-01-07T06:57:58;16.9;;;15.2;;
77748;SDS011;66938;52.084;5.228;2024-01-07T06:59:34;17.8;;;16.0;;
77748;SDS011;66938;52.084;5.228;2024-01-07T07:02:47;17.2;;;15.6;;
77748;SDS011;66938;52.084;5.228;2024-01-07T07:04:23;17.11;;;15.4;;
77748;SDS011;66938;52.084;5.228;2024-01-07T07:06:00;19.2;;;17.41;;
77748;SDS011;66938;52.084;5.228;2024-01-07T07:09:13;17.2;;;15.4;;
77748;SDS011;66938;52.084;5.228;2024-01-07T07:10:49;18.3;;;16.61;;
77748;SDS011;66938;52.084;5.228;2024-01-07T07:12:25;16.9;;;15.3;;
77748;SDS011;66938;52.084;5.228;2024-01-07T07:14:01;18.11;;;16.3;;
77748;SDS011;66938;52.084;5.228;2024-01-07T07:17:14;16.9;;;15.3;;
77748;SDS011;66938;52.084;5.228;2024-01-07T07:18:51;18.2;;;16.5;;
77748;SDS011;66938;52.084;5.228;2024-01-07T07:20:27;16.7;;;15.1;;
77748;SDS011;66938;52.084;5.228;2024-01-07T07:23:40;17.61;;;15.9;;
77748;SDS011;66938;52.084;5.228;2024-01-07T07:25:16;17.61;;;15.9;;
77748;SDS011;66938;52.084;5.228;2024-01-07T07:26:52;18.3;;;16.61;;
77748;SDS011;66938;52.084;5.228;2024-01-07T07:30:05;17.91;;;16.2;;
77748;SDS011;66938;52.084;5.228;2024-01-07T07:31:43;17.91;;;16.2;;
77748;SDS011;66938;52.084;5.228;2024-01-07T07:33:19;18.41;;;16.7;;
77748;SDS011;66938;52.084;5.228;2024-01-07T07:36:31;18.7;;;16.9;;
77748;SDS011;66938;52.084;5.228;2024-01-07T07:38:08;17.2;;;15.6;;
77748;SDS011;66938;52.084;5.228;2024-01-07T07:39:47;18.61;;;16.8;;
77748;SDS011;66938;52.084;5.228;2024-01-07T07:41:23;18.2;;;16.4;;
77748;SDS011;66938;52.084;5.228;2024-01-07T07:44:36;18.0;;;16.2;;
77748;SDS011;66938;52.084;5.228;2024-01-07T07:46:12;17.8;;;16.11;;
77748;SDS011;66938;52.084;5.228;2024-01-07T07:47:48;17.61;;;15.8;;
77748;SDS011;66938;52.084;5.228;2024-01-07T07:51:01;17.2;;;15.6;;
77748;SDS011;66938;52.084;5.228;2024-01-07T07:52:37;17.8;;;16.0;;
77748;SDS011;66938;52.084;5.228;2024-01-07T07:54:13;16.3;;;14.8;;
77748;SDS011;66938;52.084;5.228;2024-01-07T07:57:26;17.3;;;15.6;;
77748;SDS011;66938;52.084;5.228;2024-01-07T07:59:02;16.61;;;15.0;;
77748;SDS011;66938;52.084;5.228;2024-01-07T08:00:38;15.9;;;14.4;;
77748;SDS011;66938;52.084;5.228;2024-01-07T08:02:14;16.2;;;14.6;;
77748;SDS011;66938;52.084;5.228;2024-01-07T08:05:27;15.9;;;14.4;;
77748;SDS011;66938;52.084;5.228;2024-01-07T08:07:03;15.9;;;14.3;;
77748;SDS011;66938;52.084;5.228;2024-01-07T08:08:39;14.5;;;13.1;;
77748;SDS011;66938;52.084;5.228;2024-01-07T08:11:53;16.4;;;14.8;;
77748;SDS011;66938;52.084;5.228;2024-01-07T08:13:32;16.2;;;14.7;;
77748;SDS011;66938;52.084;5.228;2024-01-07T08:15:08;18.11;;;16.3;;
77748;SDS011;66938;52.084;5.228;2024-01-07T08:18:22;18.0;;;16.2;;
77748;SDS011;66938;52.084;5.228;2024-01-07T08:19:58;17.5;;;15.8;;
77748;SDS011;66938;52.084;5.228;2024-01-07T08:21:34;18.0;;;16.3;;
77748;SDS011;66938;52.084;5.228;2024-01-07T08:23:10;17.7;;;16.0;;
77748;SDS011;66938;52.084;5.228;2024-01-07T08:26:23;17.11;;;15.5;;
77748;SDS011;66938;52.084;5.228;2024-01-07T08:27:59;17.5;;;15.9;;
77748;SDS011;66938;52.084;5.228;2024-01-07T08:29:36;16.11;;;14.6;;
77748;SDS011;66938;52.084;5.228;2024-01-07T08:32:48;17.2;;;15.6;;
77748;SDS011;66938;52.084;5.228;2024-01-07T08:34:25;16.2;;;14.7;;
77748;SDS011;66938;52.084;5.228;2024-01-07T08:36:02;15.6;;;14.2;;
77748;SDS011;66938;52.084;5.228;2024-01-07T08:39:14;16.3;;;14.8;;
77748;SDS011;66938;52.084;5.228;2024-01-07T08:40:51;16.5;;;15.0;;
77748;SDS011;66938;52.084;5.228;2024-01-07T08:42:27;15.6;;;14.1;;
77748;SDS011;66938;52.084;5.228;2024-01-07T08:44:03;17.11;;;15.5;;
77748;SDS011;66938;52.084;5.228;2024-01-07T08:47:18;16.2;;;14.7;;
77748;SDS011;66938;52.084;5.228;2024-01-07T08:48:55;15.7;;;14.2;;
77748;SDS011;66938;52.084;5.228;2024-01-07T08:50:31;15.6;;;14.1;;
77748;SDS011;66938;52.084;5.228;2024-01-07T08:53:43;16.2;;;14.8;;
77748;SDS011;66938;52.084;5.228;2024-01-07T08:55:19;15.6;;;14.2;;
77748;SDS011;66938;52.084;5.228;2024-01-07T08:56:58;15.5;;;14.1;;
77748;SDS011;66938;52.084;5.228;2024-01-07T09:00:11;15.8;;;14.3;;
77748;SDS011;66938;52.084;5.228;2024-01-07T09:01:47;15.9;;;14.5;;
77748;SDS011;66938;52.084;5.228;2024-01-07T09:03:24;16.3;;;14.7;;
77748;SDS011;66938;52.084;5.228;2024-01-07T09:05:00;15.0;;;13.6;;
77748;SDS011;66938;52.084;5.228;2024-01-07T09:08:13;15.3;;;13.8;;
77748;SDS011;66938;52.084;5.228;2024-01-07T09:09:49;14.7;;;13.3;;
77748;SDS011;66938;52.084;5.228;2024-01-07T09:11:25;14.8;;;13.4;;
77748;SDS011;66938;52.084;5.228;2024-01-07T09:14:38;16.4;;;14.8;;
77748;SDS011;66938;52.084;5.228;2024-01-07T09:16:15;15.0;;;13.6;;
77748;SDS011;66938;52.084;5.228;2024-01-07T09:17:51;14.7;;;13.3;;
77748;SDS011;66938;52.084;5.228;2024-01-07T09:21:03;14.3;;;12.9;;
77748;SDS011;66938;52.084;5.228;2024-01-07T09:22:40;13.5;;;12.2;;
77748;SDS011;66938;52.084;5.228;2024-01-07T09:24:16;14.0;;;12.7;;
77748;SDS011;66938;52.084;5.228;2024-01-07T09:25:52;13.3;;;12.1;;
77748;SDS011;66938;52.084;5.228;2024-01-07T09:29:05;13.4;;;12.1;;
77748;SDS011;66938;52.084;5.228;2024-01-07T09:30:44;12.9;;;11.7;;
77748;SDS011;66938;52.084;5.228;2024-01-07T09:32:20;13.5;;;12.1;;
77748;SDS011;66938;52.084;5.228;2024-01-07T09:35:32;13.3;;;11.9;;
77748;SDS011;66938;52.084;5.228;2024-01-07T09:37:08;12.9;;;11.7;;
77748;SDS011;66938;52.084;5.228;2024-01-07T09:38:44;13.6;;;12.3;;
77748;SDS011;66938;52.084;5.228;2024-01-07T09:41:59;13.7;;;12.4;;
77748;SDS011;66938;52.084;5.228;2024-01-07T09:43:37;13.4;;;12.0;;
77748;SDS011;66938;52.084;5.228;2024-01-07T09:45:13;13.6;;;12.2;;
77748;SDS011;66938;52.084;5.228;2024-01-07T09:46:50;13.6;;;12.3;;
77748;SDS011;66938;52.084;5.228;2024-01-07T09:50:03;13.2;;;11.8;;
77748;SDS011;66938;52.084;5.228;2024-01-07T09:51:40;13.8;;;12.4;;
77748;SDS011;66938;52.084;5.228;2024-01-07T09:53:20;13.6;;;12.3;;
77748;SDS011;66938;52.084;5.228;2024-01-07T09:56:47;13.4;;;12.0;;
77748;SDS011;66938;52.084;5.228;2024-01-07T09:58:30;13.5;;;12.2;;
77748;SDS011;66938;52.084;5.228;2024-01-07T10:00:07;12.6;;;11.4;;
77748;SDS011;66938;52.084;5.228;2024-01-07T10:01:45;11.7;;;10.5;;
77748;SDS011;66938;52.084;5.228;2024-01-07T10:04:59;11.7;;;10.6;;
77748;SDS011;66938;52.084;5.228;2024-01-07T10:06:35;12.3;;;11.0;;
77748;SDS011;66938;52.084;5.228;2024-01-07T10:08:11;12.2;;;10.8;;
77748;SDS011;66938;52.084;5.228;2024-01-07T10:09:47;11.6;;;10.4;;
77748;SDS011;66938;52.084;5.228;2024-01-07T10:13:01;11.8;;;10.5;;
77748;SDS011;66938;52.084;5.228;2024-01-07T10:14:40;11.4;;;10.21;;
77748;SDS011;66938;52.084;5.228;2024-01-07T10:16:16;11.2;;;10.0;;
77748;SDS011;66938;52.084;5.228;2024-01-07T10:19:31;11.6;;;10.5;;
77748;SDS011;66938;52.084;5.228;2024-01-07T10:21:11;10.0;;;9.0;;
77748;SDS011;66938;52.084;5.228;2024-01-07T10:22:49;11.4;;;9.81;;
77748;SDS011;66938;52.084;5.228;2024-01-07T10:24:30;9.5;;;8.5;;
77748;SDS011;66938;52.084;5.228;2024-01-07T10:27:48;9.5;;;8.31;;
77748;SDS011;66938;52.084;5.228;2024-01-07T10:29:24;9.81;;;8.4;;
77748;SDS011;66938;52.084;5.228;2024-01-07T10:31:00;9.0;;;8.0;;
77748;SDS011;66938;52.084;5.228;2024-01-07T10:34:13;9.9;;;8.4;;
77748;SDS011;66938;52.084;5.228;2024-01-07T10:35:52;8.9;;;7.8;;
77748;SDS011;66938;52.084;5.228;2024-01-07T10:37:37;10.6;;;8.9;;
77748;SDS011;66938;52.084;5.228;2024-01-07T10:39:14;11.0;;;9.0;;
77748;SDS011;66938;52.084;5.228;2024-01-07T10:42:31;9.81;;;8.5;;
77748;SDS011;66938;52.084;5.228;2024-01-07T10:44:08;9.5;;;8.31;;
77748;SDS011;66938;52.084;5.228;2024-01-07T10:45:44;9.0;;;8.0;;
77748;SDS011;66938;52.084;5.228;2024-01-07T10:47:23;9.6;;;8.0;;
77748;SDS011;66938;52.084;5.228;2024-01-07T10:50:56;8.0;;;7.0;;
77748;SDS011;66938;52.084;5.228;2024-01-07T10:52:36;8.2;;;6.9;;
77748;SDS011;66938;52.084;5.228;2024-01-07T10:54:14;7.7;;;6.9;;
77748;SDS011;66938;52.084;5.228;2024-01-07T10:55:59;7.7;;;6.9;;
77748;SDS011;66938;52.084;5.228;2024-01-07T10:59:22;7.0;;;6.3;;
77748;SDS011;66938;52.084;5.228;2024-01-07T11:00:59;6.7;;;5.8;;
77748;SDS011;66938;52.084;5.228;2024-01-07T11:02:39;6.3;;;5.7;;
77748;SDS011;66938;52.084;5.228;2024-01-07T11:04:36;6.7;;;6.0;;
77748;SDS011;66938;52.084;5.228;2024-01-07T11:06:20;7.5;;;6.0;;
77748;SDS011;66938;52.084;5.228;2024-01-07T11:10:01;6.1;;;5.5;;
77748;SDS011;66938;52.084;5.228;2024-01-07T11:11:42;6.8;;;5.9;;
77748;SDS011;66938;52.084;5.228;2024-01-07T11:13:38;6.4;;;5.7;;
77748;SDS011;66938;52.084;5.228;2024-01-07T11:15:25;6.0;;;5.11;;
77748;SDS011;66938;52.084;5.228;2024-01-07T11:17:41;6.0;;;5.11;;
77748;SDS011;66938;52.084;5.228;2024-01-07T11:19:21;5.2;;;4.7;;
77748;SDS011;66938;52.084;5.228;2024-01-07T11:20:58;5.7;;;4.61;;
77748;SDS011;66938;52.084;5.228;2024-01-07T11:24:24;6.6;;;4.8;;
77748;SDS011;66938;52.084;5.228;2024-01-07T11:26:14;5.7;;;5.11;;
77748;SDS011;66938;52.084;5.228;2024-01-07T11:27:50;5.3;;;4.5;;
77748;SDS011;66938;52.084;5.228;2024-01-07T11:29:26;6.0;;;4.61;;
77748;SDS011;66938;52.084;5.228;2024-01-07T11:32:39;5.5;;;4.7;;
77748;SDS011;66938;52.084;5.228;2024-01-07T11:34:51;4.91;;;4.2;;
77748;SDS011;66938;52.084;5.228;2024-01-07T11:36:27;5.8;;;4.61;;
77748;SDS011;66938;52.084;5.228;2024-01-07T11:38:04;5.6;;;4.91;;
77748;SDS011;66938;52.084;5.228;2024-01-07T11:41:18;5.6;;;4.7;;
77748;SDS011;66938;52.084;5.228;2024-01-07T11:42:56;5.2;;;4.3;;
77748;SDS011;66938;52.084;5.228;2024-01-07T11:44:34;6.0;;;4.91;;
77748;SDS011;66938;52.084;5.228;2024-01-07T11:46:10;5.4;;;4.8;;
77748;SDS011;66938;52.084;5.228;2024-01-07T11:49:22;6.0;;;4.5;;
77748;SDS011;66938;52.084;5.228;2024-01-07T11:50:59;5.6;;;4.41;;
77748;SDS011;66938;52.084;5.228;2024-01-07T11:52:35;4.91;;;4.2;;
77748;SDS011;66938;52.084;5.228;2024-01-07T11:55:48;5.8;;;3.9;;
77748;SDS011;66938;52.084;5.228;2024-01-07T11:57:25;5.11;;;4.3;;
77748;SDS011;66938;52.084;5.228;2024-01-07T11:59:01;5.3;;;4.2;;
77748;SDS011;66938;52.084;5.228;2024-01-07T12:00:37;7.2;;;4.1;;
77748;SDS011;66938;52.084;5.228;2024-01-07T12:03:50;4.5;;;3.5;;
77748;SDS011;66938;52.084;5.228;2024-01-07T12:05:27;4.3;;;3.4;;
77748;SDS011;66938;52.084;5.228;2024-01-07T12:07:04;3.9;;;3.3;;
77748;SDS011;66938;52.084;5.228;2024-01-07T12:10:17;5.6;;;3.6;;
77748;SDS011;66938;52.084;5.228;2024-01-07T12:11:54;3.9;;;3.2;;
77748;SDS011;66938;52.084;5.228;2024-01-07T12:13:31;4.1;;;3.2;;
77748;SDS011;66938;52.084;5.228;2024-01-07T12:16:46;4.61;;;3.1;;
77748;SDS011;66938;52.084;5.228;2024-01-07T12:18:23;4.61;;;2.9;;
77748;SDS011;66938;52.084;5.228;2024-01-07T12:19:59;3.8;;;3.1;;
77748;SDS011;66938;52.084;5.228;2024-01-07T12:21:36;3.9;;;3.0;;
77748;SDS011;66938;52.084;5.228;2024-01-07T12:24:59;4.3;;;3.1;;
77748;SDS011;66938;52.084;5.228;2024-01-07T12:26:36;6.1;;;2.9;;
77748;SDS011;66938;52.084;5.228;2024-01-07T12:28:12;4.61;;;3.0;;
77748;SDS011;66938;52.084;5.228;2024-01-07T12:31:31;4.3;;;2.7;;
77748;SDS011;66938;52.084;5.228;2024-01-07T12:33:08;3.8;;;2.5;;
77748;SDS011;66938;52.084;5.228;2024-01-07T12:34:45;4.0;;;2.7;;
77748;SDS011;66938;52.084;5.228;2024-01-07T12:36:22;4.2;;;2.8;;